createdAt,value
2022-10-18T00:02:11.161Z,102479.56
2022-10-18T00:04:33.145Z,102483.16
2022-10-18T00:06:54.914Z,102483.16
2022-10-18T00:09:17.205Z,102485.44
2022-10-18T00:11:39.296Z,102478.25
2022-10-18T00:14:01.206Z,102471.03
2022-10-18T00:16:23.532Z,102471.03
2022-10-18T00:18:45.731Z,102475.78
2022-10-18T00:21:13.800Z,102479.06
2022-10-18T00:23:36.370Z,102470.72
2022-10-18T00:26:03.009Z,102467.13
2022-10-18T00:28:24.858Z,102471.88
2022-10-18T00:30:46.672Z,102469.91
2022-10-18T00:33:08.460Z,102468.28
2022-10-18T00:35:30.262Z,102459.94
2022-10-18T00:37:52.081Z,102465.50
2022-10-18T00:40:13.899Z,102458.31
2022-10-18T00:42:37.876Z,102466.66
2022-10-18T00:45:24.273Z,102470.25
2022-10-18T00:47:57.831Z,102466.97
2022-10-18T00:50:23.109Z,102475.31
2022-10-18T00:52:54.355Z,102479.72
2022-10-18T00:55:16.255Z,102477.28
2022-10-18T00:57:42.650Z,102476.97
2022-10-18T01:00:09.817Z,102474.19
2022-10-18T01:02:32.853Z,102477.78
2022-10-18T01:04:55.028Z,102474.97
2022-10-18T01:08:00.218Z,102473.03
2022-10-18T01:10:37.985Z,102480.53
2022-10-18T01:13:25.973Z,102475.78
2022-10-18T01:15:59.512Z,102483.31
2022-10-18T01:18:35.926Z,102484.47
2022-10-18T01:21:45.568Z,102485.13
2022-10-18T01:24:30.887Z,102493.31
2022-10-18T01:27:11.255Z,102495.91
2022-10-18T01:30:09.972Z,102492.31
2022-10-18T01:32:42.412Z,102493.50
2022-10-18T01:35:14.088Z,102490.22
2022-10-18T01:37:38.865Z,102486.94
2022-10-18T01:40:08.911Z,102484.47
2022-10-18T01:42:31.883Z,102469.78
2022-10-18T01:44:54.925Z,102482.19
2022-10-18T01:47:19.227Z,102483.03
2022-10-18T01:49:41.235Z,102483.84
2022-10-18T01:52:03.423Z,102477.13
2022-10-18T01:54:34.686Z,102480.72
2022-10-18T01:57:16.521Z,102483.19
2022-10-18T02:00:19.189Z,102483.19
2022-10-18T02:03:10.927Z,102490.34
2022-10-18T02:05:57.571Z,102489.06
2022-10-18T02:08:28.433Z,102489.41
2022-10-18T02:11:08.999Z,102494.97
2022-10-18T02:13:40.304Z,102488.59
2022-10-18T02:16:10.368Z,102484.66
2022-10-18T02:18:41.485Z,102491.84
2022-10-18T02:21:08.243Z,102483.19
2022-10-18T02:23:32.544Z,102483.19
2022-10-18T02:25:54.922Z,102479.91
2022-10-18T02:28:16.901Z,102481.06
2022-10-18T02:30:57.242Z,102474.19
2022-10-18T02:33:33.245Z,102476.47
2022-10-18T02:36:06.395Z,102480.88
2022-10-18T02:38:31.633Z,102485.31
2022-10-18T02:40:53.488Z,102484.97
2022-10-18T02:43:15.236Z,102483.03
2022-10-18T02:45:37.833Z,102496.59
2022-10-18T02:47:59.703Z,102493.00
2022-10-18T02:50:21.588Z,102485.81
2022-10-18T02:52:43.417Z,102486.63
2022-10-18T02:55:07.320Z,102488.91
2022-10-18T02:57:30.545Z,102482.00
2022-10-18T02:59:52.800Z,102493.94
2022-10-18T03:02:14.577Z,102489.22
2022-10-18T03:04:36.313Z,102493.13
2022-10-18T03:06:58.090Z,102505.72
2022-10-18T03:09:19.890Z,102504.06
2022-10-18T03:11:41.669Z,102496.88
2022-10-18T03:14:03.442Z,102501.63
2022-10-18T03:16:25.495Z,102508.81
2022-10-18T03:18:47.491Z,102496.88
2022-10-18T03:21:10.478Z,102501.28
2022-10-18T03:23:32.345Z,102492.94
2022-10-18T03:25:54.105Z,102496.22
2022-10-18T03:28:15.887Z,102497.03
2022-10-18T03:30:38.955Z,102502.28
2022-10-18T03:33:00.821Z,102501.16
2022-10-18T03:35:22.789Z,102505.91
2022-10-18T03:37:44.599Z,102488.91
2022-10-18T03:40:07.759Z,102493.31
2022-10-18T03:42:30.021Z,102493.31
2022-10-18T03:44:52.161Z,102498.56
2022-10-18T03:47:14.061Z,102496.59
2022-10-18T03:49:35.883Z,102505.25
2022-10-18T03:51:57.659Z,102493.81
2022-10-18T03:54:19.678Z,102504.41
2022-10-18T03:56:41.435Z,102504.41
2022-10-18T03:59:04.530Z,102497.75
2022-10-18T04:01:26.407Z,102508.50
2022-10-18T04:03:48.312Z,102507.69
2022-10-18T04:06:10.164Z,102499.72
2022-10-18T04:08:31.958Z,102490.03
2022-10-18T04:10:53.866Z,102494.25
2022-10-18T04:13:15.668Z,102495.72
2022-10-18T04:15:38.007Z,102495.72
2022-10-18T04:18:01.121Z,102492.16
2022-10-18T04:20:24.864Z,102491.81
2022-10-18T04:22:51.144Z,102494.59
2022-10-18T04:25:12.881Z,102484.63
2022-10-18T04:27:35.229Z,102494.59
2022-10-18T04:29:57.232Z,102494.59
2022-10-18T04:32:18.987Z,102494.59
2022-10-18T04:34:40.793Z,102498.69
2022-10-18T04:37:02.615Z,102496.44
2022-10-18T04:39:24.458Z,102496.44
2022-10-18T04:41:46.195Z,102503.13
2022-10-18T04:44:08.341Z,102503.75
2022-10-18T04:46:30.108Z,102503.25
2022-10-18T04:48:51.946Z,102504.41
2022-10-18T04:51:13.773Z,102511.59
2022-10-18T04:53:35.567Z,102509.63
2022-10-18T04:55:57.384Z,102504.41
2022-10-18T04:58:19.281Z,102506.38
2022-10-18T05:00:42.134Z,102500.81
2022-10-18T05:03:04.079Z,102498.03
2022-10-18T05:05:37.911Z,102493.31
2022-10-18T05:08:07.928Z,102493.13
2022-10-18T05:10:29.886Z,102503.44
2022-10-18T05:12:51.709Z,102509.28
2022-10-18T05:15:13.472Z,102506.53
2022-10-18T05:17:35.348Z,102504.09
2022-10-18T05:19:57.076Z,102510.44
2022-10-18T05:22:18.830Z,102510.94
2022-10-18T05:24:40.535Z,102514.03
2022-10-18T05:27:02.336Z,102510.78
2022-10-18T05:29:24.860Z,102517.47
2022-10-18T05:31:49.239Z,102516.97
2022-10-18T05:34:11.040Z,102519.75
2022-10-18T05:36:32.828Z,102522.53
2022-10-18T05:38:56.256Z,102524.00
2022-10-18T05:41:18.735Z,102527.44
2022-10-18T05:43:41.159Z,102526.13
2022-10-18T05:46:04.847Z,102528.91
2022-10-18T05:48:26.691Z,102537.25
2022-10-18T05:50:48.540Z,102526.94
2022-10-18T05:53:12.349Z,102536.44
2022-10-18T05:55:40.313Z,102539.22
2022-10-18T05:58:03.210Z,102543.94
2022-10-18T06:00:25.093Z,102547.56
2022-10-18T06:02:46.947Z,102552.25
2022-10-18T06:05:09.097Z,102558.97
2022-10-18T06:07:31.351Z,102555.38
2022-10-18T06:09:53.275Z,102553.72
2022-10-18T06:12:15.107Z,102558.78
2022-10-18T06:14:37.897Z,102555.19
2022-10-18T06:16:59.674Z,102551.13
2022-10-18T06:19:21.526Z,102555.84
2022-10-18T06:21:44.319Z,102558.94
2022-10-18T06:24:06.627Z,102559.28
2022-10-18T06:26:28.847Z,102561.22
2022-10-18T06:28:50.965Z,102557.97
2022-10-18T06:31:14.946Z,102560.75
2022-10-18T06:33:37.388Z,102560.25
2022-10-18T06:36:06.871Z,102563.84
2022-10-18T06:38:30.548Z,102574.44
2022-10-18T06:40:53.723Z,102583.59
2022-10-18T06:43:21.202Z,102585.91
2022-10-18T06:45:43.467Z,102594.03
2022-10-18T06:48:05.688Z,102584.41
2022-10-18T06:50:27.643Z,102587.50
2022-10-18T06:52:51.172Z,102588.34
2022-10-18T06:55:13.103Z,102596.66
2022-10-18T06:57:34.972Z,102606.44
2022-10-18T06:59:57.005Z,102613.13
2022-10-18T07:02:19.007Z,102610.19
2022-10-18T07:04:40.831Z,102616.88
2022-10-18T07:07:02.629Z,102611.16
2022-10-18T07:09:24.479Z,102610.97
2022-10-18T07:11:46.289Z,102629.25
2022-10-18T07:14:09.560Z,102628.25
2022-10-18T07:16:34.650Z,102634.97
2022-10-18T07:18:56.808Z,102631.03
2022-10-18T07:21:25.535Z,102636.78
2022-10-18T07:23:48.202Z,102636.94
2022-10-18T07:26:27.423Z,102640.72
2022-10-18T07:28:57.989Z,102653.16
2022-10-18T07:31:20.999Z,102657.88
2022-10-18T07:33:45.545Z,102651.84
2022-10-18T07:36:08.910Z,102661.28
2022-10-18T07:38:30.915Z,102665.50
2022-10-18T07:40:58.575Z,102668.00
2022-10-18T07:43:20.372Z,102662.44
2022-10-18T07:45:53.031Z,102667.34
2022-10-18T07:48:14.770Z,102679.59
2022-10-18T07:50:36.707Z,102681.88
2022-10-18T07:52:58.452Z,102676.63
2022-10-18T07:55:20.267Z,102677.94
2022-10-18T07:57:42.058Z,102685.16
2022-10-18T08:00:04.702Z,102685.47
2022-10-18T08:02:33.288Z,102695.75
2022-10-18T08:04:55.155Z,102697.38
2022-10-18T08:07:16.956Z,102695.91
2022-10-18T08:09:39.338Z,102706.72
2022-10-18T08:12:01.107Z,102710.50
2022-10-18T08:14:22.994Z,102713.91
2022-10-18T08:16:44.810Z,102718.97
2022-10-18T08:19:06.641Z,102709.50
2022-10-18T08:21:28.511Z,102717.03
2022-10-18T08:23:50.524Z,102730.97
2022-10-18T08:26:16.839Z,102720.22
2022-10-18T08:28:39.338Z,102719.56
2022-10-18T08:31:11.413Z,102722.06
2022-10-18T08:33:35.776Z,102726.66
2022-10-18T08:36:00.173Z,102732.88
2022-10-18T08:38:21.947Z,102734.34
2022-10-18T08:40:44.458Z,102730.75
2022-10-18T08:43:21.988Z,102739.69
2022-10-18T08:45:44.324Z,102733.66
2022-10-18T08:48:08.541Z,102732.50
2022-10-18T08:50:36.864Z,102739.69
2022-10-18T08:53:19.810Z,102741.34
2022-10-18T08:55:47.568Z,102735.97
2022-10-18T08:58:26.797Z,102733.22
2022-10-18T09:01:30.518Z,102741.91
2022-10-18T09:04:23.249Z,102745.88
2022-10-18T09:07:18.601Z,102732.34
2022-10-18T09:10:18.508Z,102737.81
2022-10-18T09:13:20.460Z,102735.84
2022-10-18T09:16:02.938Z,102740.78
2022-10-18T09:18:51.492Z,102750.25
2022-10-18T09:21:29.838Z,102749.13
2022-10-18T09:24:12.639Z,102744.22
2022-10-18T09:26:47.337Z,102750.09
2022-10-18T09:30:05.853Z,102752.25
2022-10-18T09:32:45.717Z,102748.13
2022-10-18T09:35:25.772Z,102752.34
2022-10-18T09:37:49.349Z,102748.72
2022-10-18T09:40:28.189Z,102738.53
2022-10-18T09:43:06.292Z,102742.31
2022-10-18T09:45:34.665Z,102733.44
2022-10-18T09:48:13.175Z,102736.03
2022-10-18T09:50:48.849Z,102730.59
2022-10-18T09:53:15.380Z,102733.19
2022-10-18T09:55:55.245Z,102739.25
2022-10-18T09:58:20.442Z,102740.91
2022-10-18T10:00:50.332Z,102740.03
2022-10-18T10:03:14.844Z,102741.16
2022-10-18T10:05:36.547Z,102745.53
2022-10-18T10:07:59.986Z,102746.53
2022-10-18T10:10:25.891Z,102753.72
2022-10-18T10:12:49.313Z,102747.34
2022-10-18T10:15:23.259Z,102751.44
2022-10-18T10:17:54.260Z,102749.13
2022-10-18T10:20:23.495Z,102738.09
2022-10-18T10:22:49.897Z,102749.91
2022-10-18T10:25:30.846Z,102754.78
2022-10-18T10:27:53.379Z,102756.91
2022-10-18T10:30:38.288Z,102749.50
2022-10-18T10:33:00.474Z,102768.81
2022-10-18T10:35:55.554Z,102761.41
2022-10-18T10:38:27.463Z,102760.72
2022-10-18T10:40:50.843Z,102764.94
2022-10-18T10:43:39.284Z,102773.59
2022-10-18T10:46:18.929Z,102769.31
2022-10-18T10:49:09.591Z,102769.13
2022-10-18T10:51:40.242Z,102781.09
2022-10-18T10:54:24.454Z,102782.88
2022-10-18T10:57:12.690Z,102773.00
2022-10-18T10:59:45.340Z,102772.78
2022-10-18T11:02:19.300Z,102786.19
2022-10-18T11:04:42.747Z,102788.09
2022-10-18T11:07:11.413Z,102775.09
2022-10-18T11:09:56.063Z,102780.31
2022-10-18T11:12:37.849Z,102774.91
2022-10-18T11:15:15.739Z,102779.19
2022-10-18T11:18:15.789Z,102767.69
2022-10-18T11:20:58.235Z,102776.53
2022-10-18T11:23:21.769Z,102776.22
2022-10-18T11:25:57.650Z,102787.97
2022-10-18T11:29:13.785Z,102789.75
2022-10-18T11:31:59.213Z,102774.59
2022-10-18T11:34:20.930Z,102772.66
2022-10-18T11:37:27.163Z,102774.38
2022-10-18T11:40:22.763Z,102775.81
2022-10-18T11:43:34.417Z,102782.22
2022-10-18T11:46:27.826Z,102783.25
2022-10-18T11:49:23.916Z,102777.31
2022-10-18T11:52:23.959Z,102764.66
2022-10-18T11:55:05.515Z,102775.94
2022-10-18T11:58:13.299Z,102771.19
2022-10-18T12:00:39.634Z,102761.63
2022-10-18T12:03:04.388Z,102763.72
2022-10-18T12:05:29.135Z,102761.41
2022-10-18T12:08:13.633Z,102760.03
2022-10-18T12:10:52.830Z,102759.34
2022-10-18T12:14:03.734Z,102763.41
2022-10-18T12:16:50.388Z,102766.47
2022-10-18T12:19:27.040Z,102753.06
2022-10-18T12:21:51.377Z,102751.44
2022-10-18T12:24:20.691Z,102757.03
2022-10-18T12:26:42.840Z,102763.78
2022-10-18T12:29:39.642Z,102752.75
2022-10-18T12:32:27.772Z,102755.16
2022-10-18T12:34:58.060Z,102747.97
2022-10-18T12:37:54.537Z,102751.56
2022-10-18T12:40:48.602Z,102747.63
2022-10-18T12:43:22.665Z,102740.38
2022-10-18T12:45:55.400Z,102733.28
2022-10-18T12:48:28.928Z,102739.22
2022-10-18T12:51:19.381Z,102744.13
2022-10-18T12:53:45.922Z,102730.63
2022-10-18T12:56:29.717Z,102730.38
2022-10-18T12:58:51.528Z,102735.63
2022-10-18T13:01:13.421Z,102738.53
2022-10-18T13:03:55.054Z,102728.16
2022-10-18T13:06:17.079Z,102736.53
2022-10-18T13:08:42.805Z,102726.53
2022-10-18T13:11:10.714Z,102735.75
2022-10-18T13:14:05.968Z,102735.75
2022-10-18T13:16:40.941Z,102730.16
2022-10-18T13:19:33.869Z,102725.72
2022-10-18T13:22:52.773Z,102720.56
2022-10-18T13:25:32.682Z,102734.22
2022-10-18T13:28:16.429Z,102728.16
2022-10-18T13:31:12.868Z,102727.25
2022-10-18T13:33:40.088Z,102721.41
2022-10-18T13:36:23.035Z,102723.13
2022-10-18T13:38:57.744Z,102732.38
2022-10-18T13:41:46.939Z,102731.91
2022-10-18T13:44:39.883Z,102727.44
2022-10-18T13:47:04.720Z,102717.91
2022-10-18T13:49:38.481Z,102721.53
2022-10-18T13:52:21.457Z,102717.91
2022-10-18T13:54:51.033Z,102726.63
2022-10-18T13:57:32.006Z,102729.44
2022-10-18T14:00:31.416Z,102729.81
2022-10-18T14:03:58.093Z,102731.31
2022-10-18T14:06:29.814Z,102724.66
2022-10-18T14:09:32.924Z,102735.72
2022-10-18T14:12:35.399Z,102736.78
2022-10-18T14:15:26.715Z,102733.97
2022-10-18T14:17:56.447Z,102739.91
2022-10-18T14:20:48.706Z,102737.81
2022-10-18T14:23:19.856Z,102727.34
2022-10-18T14:25:42.238Z,102736.53
2022-10-18T14:28:12.865Z,102733.72
2022-10-18T14:30:36.458Z,102739.66
2022-10-18T14:32:59.589Z,102736.06
2022-10-18T14:35:39.645Z,102733.97
2022-10-18T14:38:02.525Z,102728.25
2022-10-18T14:40:29.183Z,102730.22
2022-10-18T14:42:50.966Z,102725.34
2022-10-18T14:45:20.038Z,102727.66
2022-10-18T14:47:41.855Z,102729.63
2022-10-18T14:50:03.783Z,102735.56
2022-10-18T14:52:35.616Z,102735.94
2022-10-18T14:54:59.749Z,102730.69
2022-10-18T14:57:36.313Z,102727.06
2022-10-18T15:00:17.567Z,102726.47
2022-10-18T15:02:39.892Z,102729.50
2022-10-18T15:05:21.841Z,102730.16
2022-10-18T15:07:45.081Z,102726.47
2022-10-18T15:10:16.401Z,102739.81
2022-10-18T15:13:08.337Z,102730.50
2022-10-18T15:15:31.019Z,102729.53
2022-10-18T15:17:54.139Z,102733.03
2022-10-18T15:20:32.767Z,102734.84
2022-10-18T15:23:15.048Z,102734.69
2022-10-18T15:25:37.172Z,102740.03
2022-10-18T15:28:01.350Z,102738.72
2022-10-18T15:30:30.056Z,102738.59
2022-10-18T15:33:04.253Z,102737.31
2022-10-18T15:35:33.188Z,102738.66
2022-10-18T15:37:58.899Z,102741.34
2022-10-18T15:40:23.685Z,102740.03
2022-10-18T15:42:46.160Z,102739.91
2022-10-18T15:45:38.476Z,102737.31
2022-10-18T15:48:06.412Z,102734.25
2022-10-18T15:51:08.356Z,102727.72
2022-10-18T15:53:54.758Z,102734.66
2022-10-18T15:56:35.276Z,102730.78
2022-10-18T15:59:00.918Z,102740.84
2022-10-18T16:01:44.778Z,102743.03
2022-10-18T16:04:20.237Z,102737.16
2022-10-18T16:06:42.076Z,102737.69
2022-10-18T16:09:04.112Z,102744.22
2022-10-18T16:11:26.511Z,102740.47
2022-10-18T16:13:49.333Z,102737.06
2022-10-18T16:16:20.472Z,102740.03
2022-10-18T16:18:42.278Z,102734.16
2022-10-18T16:21:04.247Z,102744.69
2022-10-18T16:23:30.794Z,102740.81
2022-10-18T16:25:52.770Z,102752.44
2022-10-18T16:28:18.128Z,102756.06
2022-10-18T16:30:40.292Z,102751.66
2022-10-18T16:33:02.090Z,102744.97
2022-10-18T16:35:24.317Z,102750.22
2022-10-18T16:37:46.109Z,102761.06
2022-10-18T16:40:37.670Z,102757.81
2022-10-18T16:43:02.897Z,102760.09
2022-10-18T16:45:24.874Z,102768.44
2022-10-18T16:47:46.724Z,102764.81
2022-10-18T16:50:17.521Z,102770.06
2022-10-18T16:52:39.486Z,102770.38
2022-10-18T16:55:01.309Z,102781.53
2022-10-18T16:57:23.267Z,102779.53
2022-10-18T16:59:45.032Z,102778.69
2022-10-18T17:02:09.261Z,102787.03
2022-10-18T17:04:31.086Z,102780.91
2022-10-18T17:06:57.626Z,102776.47
2022-10-18T17:09:19.463Z,102785.59
2022-10-18T17:11:41.955Z,102785.56
2022-10-18T17:14:03.875Z,102791.06
2022-10-18T17:16:35.512Z,102782.69
2022-10-18T17:19:01.416Z,102783.78
2022-10-18T17:21:26.021Z,102794.50
2022-10-18T17:23:48.446Z,102794.78
2022-10-18T17:26:28.285Z,102797.81
2022-10-18T17:28:52.609Z,102796.63
2022-10-18T17:31:15.208Z,102790.41
2022-10-18T17:33:37.616Z,102801.94
2022-10-18T17:35:59.546Z,102798.78
2022-10-18T17:38:21.339Z,102802.78
2022-10-18T17:40:43.515Z,102815.97
2022-10-18T17:43:05.274Z,102816.41
2022-10-18T17:45:27.413Z,102826.28
2022-10-18T17:47:49.444Z,102827.53
2022-10-18T17:50:11.854Z,102835.97
2022-10-18T17:52:33.752Z,102829.38
2022-10-18T17:54:55.660Z,102839.16
2022-10-18T17:57:18.647Z,102836.16
2022-10-18T17:59:40.382Z,102838.56
2022-10-18T18:02:02.255Z,102840.31
2022-10-18T18:04:25.708Z,102838.75
2022-10-18T18:06:49.051Z,102841.75
2022-10-18T18:09:15.280Z,102837.31
2022-10-18T18:11:40.093Z,102840.31
2022-10-18T18:14:02.256Z,102848.19
2022-10-18T18:16:27.865Z,102850.25
2022-10-18T18:18:52.773Z,102850.31
2022-10-18T18:21:14.808Z,102854.84
2022-10-18T18:23:36.877Z,102857.59
2022-10-18T18:25:59.946Z,102855.13
2022-10-18T18:28:21.838Z,102858.22
2022-10-18T18:30:43.766Z,102857.69
2022-10-18T18:33:05.697Z,102851.13
2022-10-18T18:35:27.578Z,102855.84
2022-10-18T18:37:52.653Z,102863.34
2022-10-18T18:40:14.423Z,102868.34
2022-10-18T18:42:36.396Z,102855.94
2022-10-18T18:44:58.294Z,102865.66
2022-10-18T18:47:23.238Z,102858.28
2022-10-18T18:49:45.133Z,102863.56
2022-10-18T18:52:07.458Z,102861.72
2022-10-18T18:54:30.491Z,102867.84
2022-10-18T18:56:52.328Z,102857.97
2022-10-18T18:59:15.309Z,102856.13
2022-10-18T19:01:37.997Z,102856.69
2022-10-18T19:04:00.691Z,102849.63
2022-10-18T19:06:31.127Z,102850.50
2022-10-18T19:09:00.154Z,102857.75
2022-10-18T19:11:22.976Z,102848.44
2022-10-18T19:13:45.762Z,102850.97
2022-10-18T19:16:31.723Z,102860.16
2022-10-18T19:19:05.230Z,102858.59
2022-10-18T19:21:32.626Z,102860.63
2022-10-18T19:23:56.116Z,102859.03
2022-10-18T19:26:55.849Z,102866.00
2022-10-18T19:29:27.803Z,102858.06
2022-10-18T19:31:53.436Z,102853.94
2022-10-18T19:34:16.573Z,102864.78
2022-10-18T19:36:40.679Z,102869.25
2022-10-18T19:39:03.681Z,102866.56
2022-10-18T19:41:28.280Z,102861.66
2022-10-18T19:43:51.474Z,102866.41
2022-10-18T19:46:13.274Z,102870.34
2022-10-18T19:48:35.043Z,102872.88
2022-10-18T19:50:57.652Z,102875.41
2022-10-18T19:53:19.621Z,102881.53
2022-10-18T19:55:41.464Z,102881.59
2022-10-18T19:58:03.430Z,102879.47
2022-10-18T20:00:25.291Z,102880.06
2022-10-18T20:02:47.178Z,102876.75
2022-10-18T20:05:09.658Z,102870.16
2022-10-18T20:07:31.568Z,102880.41
2022-10-18T20:09:53.384Z,102869.94
2022-10-18T20:12:15.213Z,102880.44
2022-10-18T20:14:36.986Z,102874.97
2022-10-18T20:16:58.914Z,102883.25
2022-10-18T20:19:20.765Z,102879.94
2022-10-18T20:21:42.583Z,102877.50
2022-10-18T20:24:06.133Z,102875.28
2022-10-18T20:26:28.230Z,102876.69
2022-10-18T20:28:59.812Z,102874.81
2022-10-18T20:31:27.513Z,102878.16
2022-10-18T20:33:59.869Z,102878.22
2022-10-18T20:36:22.113Z,102882.09
2022-10-18T20:38:46.923Z,102879.63
2022-10-18T20:41:13.646Z,102889.31
2022-10-18T20:43:36.158Z,102878.84
2022-10-18T20:45:59.691Z,102871.97
2022-10-18T20:48:21.708Z,102875.06
2022-10-18T20:50:43.562Z,102863.75
2022-10-18T20:53:05.401Z,102877.88
2022-10-18T20:55:29.477Z,102863.81
2022-10-18T20:57:51.334Z,102870.50
2022-10-18T21:00:14.096Z,102861.94
2022-10-18T21:02:35.892Z,102870.81
2022-10-18T21:04:57.983Z,102868.38
2022-10-18T21:07:19.840Z,102866.25
2022-10-18T21:09:41.653Z,102862.41
2022-10-18T21:12:03.717Z,102866.84
2022-10-18T21:14:26.721Z,102857.19
2022-10-18T21:16:50.036Z,102858.31
2022-10-18T21:19:25.280Z,102858.91
2022-10-18T21:21:50.616Z,102857.00
2022-10-18T21:24:13.955Z,102857.56
2022-10-18T21:26:37.022Z,102858.13
2022-10-18T21:29:00.242Z,102857.88
2022-10-18T21:31:28.560Z,102858.75
2022-10-18T21:34:03.568Z,102863.16
2022-10-18T21:36:29.811Z,102857.69
2022-10-18T21:38:53.187Z,102848.63
2022-10-18T21:41:17.961Z,102841.75
2022-10-18T21:43:46.920Z,102844.22
2022-10-18T21:46:10.268Z,102845.63
2022-10-18T21:48:32.063Z,102852.84
2022-10-18T21:50:54.170Z,102842.09
2022-10-18T21:53:16.642Z,102847.88
2022-10-18T21:55:38.475Z,102851.75
2022-10-18T21:58:00.276Z,102850.66
2022-10-18T22:00:22.113Z,102850.13
2022-10-18T22:02:43.858Z,102852.34
2022-10-18T22:05:08.357Z,102845.75
2022-10-18T22:07:33.531Z,102844.38
2022-10-18T22:09:55.610Z,102845.50
2022-10-18T22:12:17.426Z,102844.38
2022-10-18T22:14:39.234Z,102845.75
2022-10-18T22:17:01.157Z,102847.16
2022-10-18T22:19:22.963Z,102841.09
2022-10-18T22:21:44.745Z,102841.34
2022-10-18T22:24:09.029Z,102837.53
2022-10-18T22:26:35.484Z,102851.03
2022-10-18T22:29:04.589Z,102850.22
2022-10-18T22:31:31.045Z,102846.69
2022-10-18T22:34:00.278Z,102847.22
2022-10-18T22:36:23.188Z,102853.28
2022-10-18T22:38:44.930Z,102847.53
2022-10-18T22:41:12.215Z,102847.25
2022-10-18T22:43:35.237Z,102858.53
2022-10-18T22:46:04.126Z,102847.25
2022-10-18T22:48:25.943Z,102842.03
2022-10-18T22:50:47.663Z,102848.66
2022-10-18T22:53:09.487Z,102849.47
2022-10-18T22:55:31.374Z,102850.84
2022-10-18T22:57:56.206Z,102855.81
2022-10-18T23:00:17.994Z,102852.78
2022-10-18T23:02:39.913Z,102852.50
2022-10-18T23:05:01.731Z,102855.56
2022-10-18T23:07:23.603Z,102857.75
2022-10-18T23:09:45.393Z,102854.16
2022-10-18T23:12:07.227Z,102852.78
2022-10-18T23:14:29.024Z,102845.09
2022-10-18T23:16:50.840Z,102850.34
2022-10-18T23:19:16.706Z,102853.09
2022-10-18T23:21:38.529Z,102853.63
2022-10-18T23:24:00.383Z,102860.25
2022-10-18T23:26:27.843Z,102845.13
2022-10-18T23:28:52.200Z,102840.44
2022-10-18T23:31:24.388Z,102847.56
2022-10-18T23:33:50.313Z,102844.84
2022-10-18T23:36:12.631Z,102851.72
2022-10-18T23:38:36.059Z,102859.41
2022-10-18T23:40:58.400Z,102854.19
2022-10-18T23:43:20.146Z,102854.47
2022-10-18T23:45:42.478Z,102857.50
2022-10-18T23:48:04.333Z,102860.50
2022-10-18T23:50:26.106Z,102854.19
2022-10-18T23:52:47.907Z,102861.06
2022-10-18T23:55:09.739Z,102859.69
2022-10-18T23:57:31.840Z,102859.13
2022-10-18T23:59:53.880Z,102853.34
